Time;durP1;ratioP1;P1;durP2;ratioP2;P2;SDS_P1;SDS_P2;PMS_P1;PMS_P2;Temp;Humidity;BMP_temperature;BMP_pressure;BME280_temperature;BME280_humidity;BME280_pressure;Samples;Min_cycle;Max_cycle;Signal;HPM_P1;HPM_P2
2023/03/31 00:00:28;;;;;;;4.53;2.00;;;;;;;12.86;60.24;99395.78;6216934;22;96679;-90
2023/03/31 00:02:54;;;;;;;5.95;2.83;;;;;;;12.86;59.94;99395.78;6191284;22;96747;-90
2023/03/31 00:05:23;;;;;;;5.90;2.45;;;;;;;12.87;59.78;99386.06;6216912;22;101115;-88
2023/03/31 00:07:59;;;;;;;4.20;2.13;;;;;;;12.90;59.91;99389.38;6190624;22;100939;-90
2023/03/31 00:10:30;;;;;;;8.15;2.28;;;;;;;12.88;60.12;99388.59;6217637;22;96843;-90
2023/03/31 00:12:57;;;;;;;4.47;2.53;;;;;;;12.81;60.14;99384.66;6191180;22;97261;-89
2023/03/31 00:15:22;;;;;;;3.08;1.85;;;;;;;12.63;60.24;99352.34;6215746;22;98210;-89
2023/03/31 00:17:49;;;;;;;5.10;2.47;;;;;;;12.81;59.90;99391.69;6189885;22;97093;-91
2023/03/31 00:20:16;;;;;;;4.95;2.65;;;;;;;12.75;59.79;99385.00;6190751;22;96853;-90
2023/03/31 00:22:45;;;;;;;3.75;1.83;;;;;;;12.78;60.11;99387.47;6190801;22;98796;-90
2023/03/31 00:25:11;;;;;;;4.38;2.17;;;;;;;12.63;59.66;99362.03;6216934;22;101208;-90
2023/03/31 00:27:37;;;;;;;5.03;2.25;;;;;;;12.75;59.98;99387.63;6189769;22;101205;-89
2023/03/31 00:30:04;;;;;;;3.25;2.00;;;;;;;12.63;59.42;99362.03;6191093;22;96598;-91
2023/03/31 00:32:29;;;;;;;4.18;2.10;;;;;;;12.50;59.60;99340.78;6244107;22;96735;-89
2023/03/31 00:34:55;;;;;;;4.82;2.08;;;;;;;12.36;59.55;99320.56;6220862;22;100126;-90
2023/03/31 00:37:21;;;;;;;4.15;1.90;;;;;;;12.65;60.35;99376.78;6195912;22;101530;-89
2023/03/31 00:39:46;;;;;;;4.15;2.20;;;;;;;12.56;59.90;99366.75;6191607;22;96622;-90
2023/03/31 00:42:12;;;;;;;5.75;2.85;;;;;;;12.67;59.92;99377.53;6215335;22;96997;-91
2023/03/31 00:45:12;;;;;;;5.10;2.10;;;;;;;12.65;60.21;99370.66;6190089;22;101121;-91
2023/03/31 00:47:40;;;;;;;5.72;2.40;;;;;;;12.64;60.30;99382.13;6240010;22;101589;-90
2023/03/31 00:50:14;;;;;;;5.00;2.40;;;;;;;12.66;59.79;99378.47;6190933;22;96610;-90
2023/03/31 00:52:40;;;;;;;7.13;2.58;;;;;;;12.57;60.00;99359.75;6215807;22;97293;-90
2023/03/31 00:55:09;;;;;;;4.55;2.25;;;;;;;12.59;59.80;99360.47;6190981;22;100485;-90
2023/03/31 00:57:38;;;;;;;6.25;2.40;;;;;;;12.62;59.87;99362.94;6189921;22;100353;-90
2023/03/31 01:00:18;;;;;;;5.35;2.20;;;;;;;12.61;59.91;99354.19;6215962;22;96978;-90
2023/03/31 01:02:56;;;;;;;5.10;2.25;;;;;;;12.53;59.96;99342.41;6241580;22;97434;-91
2023/03/31 01:05:26;;;;;;;4.55;2.50;;;;;;;12.49;60.18;99343.53;6217708;22;101882;-90
2023/03/31 01:07:53;;;;;;;7.20;2.95;;;;;;;12.59;59.97;99350.78;6190131;22;99648;-90
2023/03/31 01:10:19;;;;;;;7.47;2.95;;;;;;;12.44;60.06;99323.56;6215677;22;97126;-90
2023/03/31 01:12:50;;;;;;;4.90;2.63;;;;;;;12.50;60.36;99340.78;6188636;22;97077;-90
2023/03/31 01:15:16;;;;;;;7.22;3.53;;;;;;;12.56;59.66;99344.88;6216478;22;97223;-90
2023/03/31 01:17:46;;;;;;;6.10;2.92;;;;;;;12.53;60.23;99345.88;6241110;22;98200;-91
2023/03/31 01:20:30;;;;;;;7.07;3.33;;;;;;;12.53;59.70;99348.53;6217044;22;96671;-91
2023/03/31 01:23:22;;;;;;;6.88;3.28;;;;;;;12.35;60.48;99337.25;6191932;22;97216;-90
2023/03/31 01:26:01;;;;;;;7.72;3.33;;;;;;;12.33;60.25;99338.28;6243377;22;98376;-90
2023/03/31 01:28:35;;;;;;;6.43;3.20;;;;;;;12.33;60.78;99333.03;6216032;22;100928;-90
2023/03/31 01:31:16;;;;;;;6.28;3.25;;;;;;;12.30;60.06;99338.47;6241669;22;97239;-89
2023/03/31 01:34:19;;;;;;;5.77;3.20;;;;;;;12.28;60.32;99335.94;6216126;22;96739;-91
2023/03/31 01:37:00;;;;;;;11.00;3.88;;;;;;;12.34;60.70;99329.47;6216430;22;101369;-90
2023/03/31 01:39:50;;;;;;;8.75;3.90;;;;;;;12.30;60.44;99328.78;6241896;22;97223;-90
2023/03/31 01:42:15;;;;;;;6.07;3.50;;;;;;;12.37;59.87;99331.94;6191604;22;96704;-90
2023/03/31 01:45:18;;;;;;;5.45;3.55;;;;;;;12.31;60.40;99327.84;6241723;22;97114;-90
2023/03/31 01:47:49;;;;;;;9.50;3.60;;;;;;;12.31;60.09;99327.00;6214439;22;100944;-89
2023/03/31 01:50:27;;;;;;;9.38;3.67;;;;;;;12.27;60.80;99322.84;6191412;22;101509;-90
2023/03/31 01:52:59;;;;;;;7.85;4.00;;;;;;;12.26;59.99;99321.16;6243341;22;97044;-90
2023/03/31 01:55:48;;;;;;;;;;;;;;;12.22;60.37;99320.50;6243409;22;96901;-90
2023/03/31 01:58:18;;;;;;;5.80;3.50;;;;;;;12.20;60.12;99311.81;6195950;22;101673;-90
2023/03/31 02:00:50;;;;;;;5.65;3.28;;;;;;;12.15;60.36;99314.72;6241936;22;97398;-90
2023/03/31 02:03:22;;;;;;;5.55;3.70;;;;;;;12.14;60.17;99304.28;6216852;22;96686;-91
2023/03/31 02:05:57;;;;;;;5.45;3.35;;;;;;;12.19;60.56;99318.03;6191567;22;96846;-90
2023/03/31 02:08:27;;;;;;;5.97;3.80;;;;;;;12.22;60.41;99313.44;6190505;22;101301;-90
2023/03/31 02:10:53;;;;;;;6.15;3.22;;;;;;;12.20;60.39;99317.09;6215211;22;101109;-90
2023/03/31 02:13:20;;;;;;;6.13;4.05;;;;;;;12.20;59.86;99317.09;6190952;22;96795;-90
2023/03/31 02:15:50;;;;;;;6.57;3.95;;;;;;;12.20;60.46;99314.47;6191318;22;96842;-89
2023/03/31 02:18:19;;;;;;;8.65;4.55;;;;;;;11.93;59.96;99270.38;6215633;22;99082;-90
2023/03/31 02:20:47;;;;;;;8.45;4.70;;;;;;;12.00;60.06;99273.50;6189647;22;100268;-90
2023/03/31 02:23:16;;;;;;;9.27;5.13;;;;;;;11.91;60.43;99269.59;6215557;22;96682;-91
2023/03/31 02:25:50;;;;;;;5.82;3.35;;;;;;;12.14;59.88;99305.13;6191154;22;96926;-90
2023/03/31 02:28:21;;;;;;;5.60;3.25;;;;;;;12.13;60.10;99302.56;6207665;22;101062;-91
2023/03/31 02:31:05;;;;;;;7.78;4.30;;;;;;;12.10;60.35;99300.13;6215983;22;101189;-90
2023/03/31 02:33:31;;;;;;;6.82;4.10;;;;;;;12.10;59.72;99297.47;6215353;22;97032;-90
2023/03/31 02:35:58;;;;;;;5.68;4.22;;;;;;;12.06;60.27;99301.22;6190509;22;96779;-90
2023/03/31 02:38:23;;;;;;;9.15;4.20;;;;;;;12.08;59.88;99287.06;6215290;22;99762;-90
2023/03/31 02:40:49;;;;;;;7.72;4.53;;;;;;;12.10;60.23;99292.22;6215163;22;101652;-89
2023/03/31 02:43:15;;;;;;;6.30;3.47;;;;;;;12.05;60.28;99291.66;6216119;22;96973;-91
2023/03/31 02:45:48;;;;;;;7.40;3.97;;;;;;;11.75;59.72;99237.16;6216439;22;96691;-90
2023/03/31 02:48:27;;;;;;;4.47;3.50;;;;;;;12.04;59.98;99292.56;6215139;22;98925;-90
2023/03/31 02:51:21;;;;;;;8.80;4.07;;;;;;;12.05;59.59;99284.59;6214260;22;100932;-89
2023/03/31 02:54:14;;;;;;;5.30;3.30;;;;;;;11.98;60.07;99277.97;6215608;22;96658;-91
2023/03/31 02:57:16;;;;;;;7.97;4.00;;;;;;;11.87;59.73;99251.44;6240828;22;96900;-90
2023/03/31 03:00:00;;;;;;;5.57;3.72;;;;;;;11.93;nan;99275.63;6240864;22;100731;-91
2023/03/31 03:03:08;;;;;;;5.95;3.92;;;;;;;11.89;59.82;99270.63;6241164;22;99606;-90
2023/03/31 03:05:37;;;;;;;5.85;3.58;;;;;;;11.89;59.87;99275.88;6190525;22;97149;-90
2023/03/31 03:08:54;;;;;;;5.18;3.63;;;;;;;11.83;60.04;99258.63;6241510;22;96998;-91
2023/03/31 03:11:42;;;;;;;4.90;3.45;;;;;;;11.88;59.83;99261.88;6205002;22;98536;-90
2023/03/31 03:14:27;;;;;;;8.63;3.95;;;;;;;11.89;59.88;99268.81;6220780;22;101342;-90
2023/03/31 03:17:00;;;;;;;6.82;3.30;;;;;;;11.90;59.67;99261.81;6220166;22;96799;-90
2023/03/31 03:19:26;;;;;;;5.75;3.38;;;;;;;11.87;59.96;99249.69;6220828;22;97280;-90
2023/03/31 03:21:51;;;;;;;8.27;3.65;;;;;;;11.88;60.00;99258.41;6245900;22;98556;-91
2023/03/31 03:24:17;;;;;;;9.93;3.40;;;;;;;11.81;59.55;99233.34;6220664;22;97740;-91
2023/03/31 03:26:44;;;;;;;5.75;3.30;;;;;;;11.79;59.96;99238.72;6220183;22;97258;-91
2023/03/31 03:29:13;;;;;;;8.18;3.88;;;;;;;11.89;59.77;99247.78;6219704;22;97309;-90
2023/03/31 03:31:40;;;;;;;10.48;4.32;;;;;;;11.81;59.80;99249.13;6220577;22;98435;-90
2023/03/31 03:34:06;;;;;;;6.57;3.63;;;;;;;11.79;59.93;99257.94;6246547;22;97187;-90
2023/03/31 03:36:32;;;;;;;4.93;3.10;;;;;;;11.83;59.88;99253.38;6194932;22;96683;-90
2023/03/31 03:38:57;;;;;;;6.65;3.50;;;;;;;11.78;59.55;99256.28;6220013;22;96937;-90
2023/03/31 03:41:23;;;;;;;5.43;3.40;;;;;;;11.78;59.65;99245.75;6219583;22;100370;-90
2023/03/31 03:43:49;;;;;;;4.57;3.35;;;;;;;11.76;59.91;99250.25;6193101;22;101258;-90
2023/03/31 03:46:14;;;;;;;5.65;3.42;;;;;;;11.71;59.65;99240.91;6220197;22;96747;-90
2023/03/31 03:48:40;;;;;;;5.32;3.80;;;;;;;11.72;59.65;99248.72;6194317;22;96917;-90
2023/03/31 03:51:06;;;;;;;5.72;3.50;;;;;;;11.65;59.72;99252.63;6194850;22;101217;-89
2023/03/31 03:53:31;;;;;;;6.40;3.15;;;;;;;11.73;59.49;99239.91;6221891;22;97748;-90
2023/03/31 03:55:58;;;;;;;7.03;3.33;;;;;;;11.60;59.61;99249.38;6196723;22;96731;-91
2023/03/31 03:58:23;;;;;;;4.97;3.05;;;;;;;11.59;60.05;99246.84;6221988;22;96723;-90
2023/03/31 04:00:49;;;;;;;7.60;3.30;;;;;;;11.53;60.00;99240.16;6195271;22;100910;-90
2023/03/31 04:03:15;;;;;;;6.10;3.45;;;;;;;11.31;60.53;99246.59;6195532;22;99999;-89
2023/03/31 04:05:41;;;;;;;5.88;3.10;;;;;;;10.90;60.56;99195.41;6195775;22;96640;-90
2023/03/31 04:08:07;;;;;;;6.32;3.10;;;;;;;10.88;61.06;99219.97;6196327;22;97003;-90
2023/03/31 04:10:34;;;;;;;6.18;3.10;;;;;;;11.01;60.91;99235.09;6196019;22;100796;-91
2023/03/31 04:12:59;;;;;;;9.77;3.08;;;;;;;11.06;60.99;99246.19;6220221;22;98924;-91
2023/03/31 04:15:25;;;;;;;5.85;3.00;;;;;;;11.09;61.19;99225.88;6221464;22;96938;-90
2023/03/31 04:17:53;;;;;;;5.15;3.03;;;;;;;10.90;60.68;99191.00;6194735;22;97292;-91
2023/03/31 04:20:19;;;;;;;5.05;2.75;;;;;;;11.15;60.33;99224.69;6222555;22;98355;-89
2023/03/31 04:22:46;;;;;;;5.57;3.28;;;;;;;11.19;60.29;99230.63;6221942;22;98822;-91
2023/03/31 04:25:15;;;;;;;9.95;4.03;;;;;;;11.15;60.88;99234.34;6222212;22;96698;-90
2023/03/31 04:27:53;;;;;;;5.97;3.67;;;;;;;11.09;60.84;99233.75;6195527;22;97023;-90
2023/03/31 04:30:32;;;;;;;6.85;3.78;;;;;;;11.15;60.58;99222.06;6221637;22;98696;-90
2023/03/31 04:33:00;;;;;;;7.22;3.63;;;;;;;11.21;60.42;99220.88;6195124;22;101524;-88
2023/03/31 04:35:41;;;;;;;4.97;3.22;;;;;;;11.22;60.45;99219.94;6196462;22;96973;-90
2023/03/31 04:38:07;;;;;;;7.15;3.97;;;;;;;11.23;60.02;99214.63;6224060;22;97028;-90
2023/03/31 04:40:34;;;;;;;5.65;3.75;;;;;;;11.06;60.58;99214.69;6195986;22;100250;-89
2023/03/31 04:43:00;;;;;;;5.05;3.15;;;;;;;10.90;60.97;99209.38;6194844;22;101382;-90
2023/03/31 04:45:26;;;;;;;9.68;3.78;;;;;;;10.74;61.03;99198.84;6195602;22;96965;-90
2023/03/31 04:47:51;;;;;;;7.15;3.40;;;;;;;10.62;61.74;99192.47;6194941;22;96859;-89
2023/03/31 04:50:17;;;;;;;6.30;3.65;;;;;;;10.55;61.44;99191.06;6220678;22;100087;-89
2023/03/31 04:52:42;;;;;;;6.28;3.67;;;;;;;10.49;61.77;99193.19;6195444;22;100657;-89
2023/03/31 04:55:09;;;;;;;7.28;4.15;;;;;;;10.56;61.64;99187.53;6221439;22;97072;-89
2023/03/31 04:57:36;;;;;;;4.60;3.17;;;;;;;10.48;62.37;99179.22;6221520;22;96989;-90
2023/03/31 05:00:06;;;;;;;5.22;3.50;;;;;;;10.51;61.81;99181.69;6194825;22;101048;-91
2023/03/31 05:02:31;;;;;;;7.30;4.07;;;;;;;10.37;61.60;99139.56;6218771;22;100933;-91
2023/03/31 05:04:57;;;;;;;5.82;3.50;;;;;;;10.64;61.10;99161.72;6191068;22;96806;-90
2023/03/31 05:07:22;;;;;;;5.55;3.70;;;;;;;10.82;61.37;99188.81;6241318;22;97451;-87
2023/03/31 05:09:48;;;;;;;6.43;3.00;;;;;;;10.78;61.54;99189.03;6189757;22;100839;-87
2023/03/31 05:12:13;;;;;;;5.45;3.20;;;;;;;10.77;61.51;99185.56;6237072;22;98239;-85
2023/03/31 05:14:39;;;;;;;6.22;3.28;;;;;;;10.85;61.22;99190.44;6213364;22;97195;-90
2023/03/31 05:17:05;;;;;;;6.18;3.78;;;;;;;10.88;61.27;99185.00;6214526;22;96840;-86
2023/03/31 05:19:30;;;;;;;5.43;3.38;;;;;;;11.09;60.82;99202.22;6214875;22;98022;-87
2023/03/31 05:21:56;;;;;;;5.78;3.22;;;;;;;11.21;60.42;99190.22;6211263;22;97522;-88
2023/03/31 05:24:21;;;;;;;7.45;3.53;;;;;;;11.30;60.69;99186.22;6189127;22;96673;-87
2023/03/31 05:26:51;;;;;;;7.93;3.65;;;;;;;11.31;60.69;99177.41;6214303;22;96935;-87
2023/03/31 05:29:17;;;;;;;7.32;4.05;;;;;;;11.38;60.08;99156.91;6239376;22;96795;-86
2023/03/31 05:31:43;;;;;;;6.85;3.70;;;;;;;11.51;60.25;99160.53;6238504;22;97992;-87
2023/03/31 05:34:08;;;;;;;7.95;3.72;;;;;;;11.62;59.93;99179.19;6187502;22;96693;-85
2023/03/31 05:36:34;;;;;;;6.85;3.88;;;;;;;11.69;59.84;99177.91;6188655;22;97315;-86
2023/03/31 05:38:59;;;;;;;8.23;3.97;;;;;;;11.76;59.30;99184.50;6185793;22;101351;-84
2023/03/31 05:41:25;;;;;;;5.78;3.78;;;;;;;11.65;59.50;99180.78;6209941;22;98040;-83
2023/03/31 05:43:50;;;;;;;6.50;4.00;;;;;;;11.64;59.77;99179.13;6207951;22;97926;-84
2023/03/31 05:46:17;;;;;;;8.52;3.83;;;;;;;11.67;59.98;99165.78;6238373;22;97170;-84
2023/03/31 05:48:43;;;;;;;7.75;4.10;;;;;;;11.74;60.17;99182.91;6183985;22;101541;-83
2023/03/31 05:51:09;;;;;;;9.15;3.60;;;;;;;11.67;59.89;99163.16;6186922;22;101845;-83
2023/03/31 05:53:35;;;;;;;7.63;4.07;;;;;;;11.83;59.62;99171.84;6238217;22;97882;-83
2023/03/31 05:56:03;;;;;;;8.65;4.10;;;;;;;11.90;59.77;99178.50;6186770;22;97499;-84
2023/03/31 05:58:29;;;;;;;8.30;4.60;;;;;;;12.11;59.24;99167.66;6207811;22;101218;-84
2023/03/31 06:01:07;;;;;;;10.77;4.35;;;;;;;12.21;59.67;99168.81;6210914;22;101731;-83
2023/03/31 06:03:33;;;;;;;5.93;3.97;;;;;;;12.20;59.38;99149.56;6211331;22;96690;-83
2023/03/31 06:05:59;;;;;;;7.60;3.97;;;;;;;12.31;58.72;99156.81;6236254;22;96736;-82
2023/03/31 06:08:24;;;;;;;9.82;4.15;;;;;;;12.29;59.32;99165.75;6209504;22;97838;-84
2023/03/31 06:10:50;;;;;;;11.07;4.50;;;;;;;12.37;59.09;99152.97;6185931;22;101728;-85
2023/03/31 06:13:15;;;;;;;7.53;4.38;;;;;;;12.48;59.19;99153.19;6211862;22;97459;-84
2023/03/31 06:15:41;;;;;;;8.52;4.13;;;;;;;12.59;59.15;99150.72;6184328;22;97253;-84
2023/03/31 06:18:09;;;;;;;13.07;4.57;;;;;;;12.58;59.36;99120.09;6210237;22;101822;-83
2023/03/31 06:20:35;;;;;;;5.75;3.78;;;;;;;12.99;58.59;99148.28;6182943;22;101329;-86
2023/03/31 06:23:01;;;;;;;10.18;4.43;;;;;;;13.13;58.24;99135.09;6185126;22;96976;-84
2023/03/31 06:25:26;;;;;;;7.50;4.63;;;;;;;13.30;57.84;99133.22;6187816;22;96982;-84
2023/03/31 06:27:52;;;;;;;12.35;4.35;;;;;;;13.54;57.79;99138.69;6183554;22;101857;-84
2023/03/31 06:30:18;;;;;;;7.85;3.75;;;;;;;13.65;57.59;99124.81;6186808;22;100938;-83
2023/03/31 06:32:43;;;;;;;10.95;5.03;;;;;;;13.94;57.09;99139.53;6233218;22;97045;-83
2023/03/31 06:35:09;;;;;;;21.38;4.85;;;;;;;14.00;56.96;99140.94;6211992;22;97318;-84
2023/03/31 06:37:35;;;;;;;7.18;3.83;;;;;;;13.97;57.09;99135.88;6184893;22;101173;-84
2023/03/31 06:40:00;;;;;;;9.40;3.85;;;;;;;13.85;56.94;99126.13;6185774;22;101074;-85
2023/03/31 06:42:26;;;;;;;8.45;3.55;;;;;;;13.90;56.96;99124.84;6212187;22;97071;-89
2023/03/31 06:44:51;;;;;;;9.50;4.15;;;;;;;13.85;56.59;99119.06;6213455;22;96912;-90
2023/03/31 06:47:17;;;;;;;7.95;3.72;;;;;;;13.95;56.95;99117.47;6211985;22;100997;-93
2023/03/31 06:49:42;;;;;;;8.20;4.05;;;;;;;13.81;57.11;99093.81;6188006;22;101150;-93
2023/03/31 06:52:08;;;;;;;5.75;3.22;;;;;;;14.15;56.95;99117.94;6215002;22;96671;-92
2023/03/31 06:54:33;;;;;;;12.93;4.70;;;;;;;14.45;56.07;99121.09;6188795;22;96869;-90
2023/03/31 06:57:07;;;;;;;13.20;3.80;;;;;;;14.66;56.12;99110.91;6212632;22;100892;-96
2023/03/31 06:59:32;;;;;;;10.07;3.58;;;;;;;15.09;55.11;99091.97;6188983;22;101297;-89
2023/03/31 07:01:58;;;;;;;7.32;3.80;;;;;;;15.27;53.70;99096.91;6212806;22;97154;-86
2023/03/31 07:04:24;;;;;;;6.45;4.22;;;;;;;15.27;53.97;99086.31;6159258;22;97253;-84
2023/03/31 07:06:50;;;;;;;11.20;5.20;;;;;;;15.24;54.18;99097.13;6184172;22;99965;-86
2023/03/31 07:09:17;;;;;;;10.15;4.35;;;;;;;15.12;54.09;99096.22;6238285;22;97225;-83
2023/03/31 07:11:42;;;;;;;11.30;4.50;;;;;;;15.22;54.40;99115.75;6184814;22;97157;-86
2023/03/31 07:14:08;;;;;;;9.73;4.47;;;;;;;15.11;54.36;99089.25;6187520;22;96718;-85
2023/03/31 07:16:35;;;;;;;6.22;3.97;;;;;;;15.17;54.45;99121.34;6211379;22;100963;-84
2023/03/31 07:19:02;;;;;;;8.43;4.20;;;;;;;14.98;54.61;99104.28;6237121;22;100149;-86
2023/03/31 07:21:28;;;;;;;7.65;4.18;;;;;;;14.97;54.82;99113.19;6182412;22;97219;-85
2023/03/31 07:23:53;;;;;;;10.10;4.63;;;;;;;14.70;55.43;99091.25;6211146;22;96877;-86
2023/03/31 07:26:19;;;;;;;7.72;4.70;;;;;;;14.52;55.65;99063.50;6211725;22;101549;-85
2023/03/31 07:28:45;;;;;;;7.88;4.50;;;;;;;14.47;55.77;99061.13;6211064;22;98454;-83
2023/03/31 07:31:12;;;;;;;12.38;5.05;;;;;;;14.58;56.19;99089.47;6186618;22;96738;-82
2023/03/31 07:33:37;;;;;;;8.57;5.00;;;;;;;14.37;56.66;99067.16;6212598;22;97319;-81
2023/03/31 07:36:06;;;;;;;7.32;5.88;;;;;;;14.46;56.81;99083.22;6212044;22;97610;-81
2023/03/31 07:38:32;;;;;;;11.57;6.00;;;;;;;14.41;57.25;99080.03;6208647;22;101182;-82
2023/03/31 07:40:58;;;;;;;7.93;5.05;;;;;;;14.22;57.54;99079.63;6233876;22;97822;-82
2023/03/31 07:43:24;;;;;;;9.85;5.07;;;;;;;14.04;58.14;99064.09;6183413;22;97012;-82
2023/03/31 07:45:49;;;;;;;14.40;5.40;;;;;;;14.10;58.49;99068.09;6182466;22;101352;-84
2023/03/31 07:48:15;;;;;;;10.15;4.72;;;;;;;14.02;58.66;99060.72;6208176;22;101311;-81
2023/03/31 07:50:41;;;;;;;9.70;5.47;;;;;;;13.92;58.98;99043.81;6234757;22;96693;-83
2023/03/31 07:53:14;;;;;;;8.32;5.50;;;;;;;14.08;58.74;99050.69;6186225;22;97529;-81
2023/03/31 07:55:39;;;;;;;9.98;5.45;;;;;;;14.25;58.45;99069.72;6180369;22;101624;-79
2023/03/31 07:58:05;;;;;;;7.38;5.35;;;;;;;14.82;57.99;99064.91;6232210;22;97450;-79
2023/03/31 08:00:31;;;;;;;10.80;6.18;;;;;;;15.15;56.77;99058.97;6236661;22;97142;-78
2023/03/31 08:02:56;;;;;;;9.93;5.57;;;;;;;15.83;55.68;99057.50;6236680;22;97305;-81
2023/03/31 08:05:22;;;;;;;8.60;5.82;;;;;;;16.37;53.27;99038.31;6236597;22;100103;-79
2023/03/31 08:07:49;;;;;;;9.80;6.30;;;;;;;16.78;52.82;99059.91;6207999;22;98840;-79
2023/03/31 08:10:24;;;;;;;10.02;5.70;;;;;;;17.26;51.95;99051.63;6210391;22;97139;-79
2023/03/31 08:12:49;;;;;;;13.05;6.68;;;;;;;16.87;52.20;99020.28;6208330;22;97238;-83
2023/03/31 08:15:15;;;;;;;12.40;6.22;;;;;;;16.89;51.89;99046.63;6208785;22;101084;-76
2023/03/31 08:17:41;;;;;;;11.13;6.32;;;;;;;16.70;52.05;99044.59;6209793;22;100702;-77
2023/03/31 08:20:09;;;;;;;7.50;4.72;;;;;;;16.39;51.77;99038.22;6210010;22;97297;-77
2023/03/31 08:22:36;;;;;;;10.48;5.78;;;;;;;16.53;51.45;99038.00;6209960;22;97315;-76
2023/03/31 08:25:02;;;;;;;8.23;5.00;;;;;;;16.69;51.82;99025.19;6236139;22;98053;-79
2023/03/31 08:27:32;;;;;;;8.40;5.60;;;;;;;17.05;50.98;99028.53;6208406;22;98012;-75
2023/03/31 08:30:01;;;;;;;6.95;3.67;;;;;;;17.16;50.21;99017.91;6235729;22;96731;-83
2023/03/31 08:32:27;;;;;;;6.13;3.80;;;;;;;17.19;49.74;99011.50;6238255;22;96817;-85
2023/03/31 08:34:53;;;;;;;6.43;3.80;;;;;;;17.11;50.50;99009.50;6238448;22;101294;-85
2023/03/31 08:37:18;;;;;;;9.02;4.53;;;;;;;16.94;50.69;98996.75;6213754;22;98158;-85
2023/03/31 08:39:44;;;;;;;8.52;4.40;;;;;;;16.72;50.91;98992.31;6214428;22;96672;-88
2023/03/31 08:42:14;;;;;;;11.65;4.68;;;;;;;16.65;51.81;98997.28;6212855;22;96908;-86
2023/03/31 08:45:07;;;;;;;8.00;3.95;;;;;;;16.58;51.73;99001.38;6239554;22;98068;-84
2023/03/31 08:47:35;;;;;;;6.43;3.67;;;;;;;16.75;51.60;98998.22;6191480;22;101819;-86
2023/03/31 08:50:12;;;;;;;5.97;3.58;;;;;;;16.68;51.93;98998.84;6213488;22;96916;-85
2023/03/31 08:52:46;;;;;;;7.38;4.10;;;;;;;16.79;51.70;99001.50;6238851;22;97039;-85
2023/03/31 08:55:20;;;;;;;10.23;4.40;;;;;;;16.78;51.53;98989.19;6185315;22;101203;-84
2023/03/31 08:57:56;;;;;;;10.38;4.30;;;;;;;16.57;52.51;98985.59;6212056;22;101076;-87
2023/03/31 09:00:22;;;;;;;9.68;3.75;;;;;;;16.55;52.30;98980.44;6213247;22;97244;-87
2023/03/31 09:03:17;;;;;;;7.70;3.88;;;;;;;16.41;53.16;98986.00;6210320;22;96977;-85
2023/03/31 09:05:56;;;;;;;8.23;4.15;;;;;;;16.49;54.41;98980.91;6209024;22;98369;-79
2023/03/31 09:08:34;;;;;;;11.77;3.55;;;;;;;16.87;54.17;98974.34;6236108;22;101048;-76
2023/03/31 09:11:11;;;;;;;7.20;3.65;;;;;;;17.00;50.75;98966.28;6185018;22;97386;-76
2023/03/31 09:14:16;;;;;;;7.97;3.50;;;;;;;17.01;51.15;98955.53;6269609;22;97079;-76
2023/03/31 09:16:57;;;;;;;8.25;3.53;;;;;;;17.45;50.40;98948.31;6176722;22;100789;-84
2023/03/31 09:19:41;;;;;;;5.23;2.63;;;;;;;17.83;49.71;98949.56;6243059;22;98242;-82
2023/03/31 09:22:21;;;;;;;8.55;3.88;;;;;;;18.02;48.66;98924.94;6213769;22;96651;-80
2023/03/31 09:25:09;;;;;;;4.95;3.15;;;;;;;18.14;48.73;98954.91;6213082;22;97117;-80
2023/03/31 09:27:41;;;;;;;6.38;2.92;;;;;;;17.78;48.42;98959.75;6213636;22;101812;-80
2023/03/31 09:30:13;;;;;;;;;;;;;;;17.37;49.27;98945.50;6213427;22;101118;-81
2023/03/31 09:32:39;;;;;;;4.88;2.67;;;;;;;17.29;49.93;98947.94;6214498;22;97177;-80
2023/03/31 09:35:27;;;;;;;7.35;3.63;;;;;;;17.26;50.40;98941.09;6189883;22;97306;-81
2023/03/31 09:37:53;;;;;;;7.30;3.20;;;;;;;17.10;50.95;98928.25;6189260;22;100126;-80
2023/03/31 09:40:21;;;;;;;6.97;3.55;;;;;;;16.93;50.92;98942.91;6215181;22;97809;-82
2023/03/31 09:43:00;;;;;;;7.43;4.00;;;;;;;16.68;50.88;98922.00;6188791;22;97194;-81
2023/03/31 09:45:26;;;;;;;4.90;2.63;;;;;;;16.69;51.28;98926.31;6212634;22;97212;-81
2023/03/31 09:47:54;;;;;;;7.00;2.78;;;;;;;16.72;50.93;98932.22;6186155;22;100973;-81
2023/03/31 09:50:21;;;;;;;6.68;3.00;;;;;;;16.44;51.95;98927.47;6181514;22;102044;-81
2023/03/31 09:52:51;;;;;;;5.82;3.20;;;;;;;16.31;52.11;98924.94;6211818;22;97285;-81
2023/03/31 09:55:20;;;;;;;6.30;2.83;;;;;;;16.13;52.62;98924.63;6213316;22;97134;-81
2023/03/31 09:57:45;;;;;;;7.03;3.25;;;;;;;15.98;53.06;98921.38;6211544;22;102139;-81
2023/03/31 10:00:15;;;;;;;6.72;3.35;;;;;;;16.01;53.05;98921.13;6211846;22;101676;-82
2023/03/31 10:02:54;;;;;;;8.15;3.63;;;;;;;15.89;53.43;98913.31;6211527;22;97074;-81
2023/03/31 10:05:35;;;;;;;6.72;2.90;;;;;;;15.88;53.27;98907.16;6187677;22;97217;-80
2023/03/31 10:08:10;;;;;;;6.97;2.97;;;;;;;16.01;53.26;98909.72;6212685;22;97906;-81
2023/03/31 10:10:36;;;;;;;5.00;2.70;;;;;;;15.93;53.25;98896.22;6240929;22;97918;-81
2023/03/31 10:13:07;;;;;;;9.80;3.13;;;;;;;15.91;52.35;98888.44;6240328;22;97300;-81
2023/03/31 10:15:36;;;;;;;6.00;3.05;;;;;;;15.81;53.03;98898.03;6216435;22;96664;-82
2023/03/31 10:18:02;;;;;;;9.35;3.03;;;;;;;15.69;53.62;98878.66;6211786;22;101437;-83
2023/03/31 10:20:37;;;;;;;5.35;3.05;;;;;;;15.86;53.51;98889.75;6189933;22;100873;-81
2023/03/31 10:23:15;;;;;;;7.00;2.80;;;;;;;15.89;53.20;98884.22;6188443;22;96770;-82
2023/03/31 10:25:41;;;;;;;8.93;3.03;;;;;;;15.76;53.93;98868.44;6265538;22;97067;-82
2023/03/31 10:28:10;;;;;;;5.57;2.33;;;;;;;15.86;53.56;98880.00;6187898;22;101591;-82
2023/03/31 10:30:36;;;;;;;8.25;3.03;;;;;;;15.91;52.75;98882.28;6214214;22;98273;-83
2023/03/31 10:33:13;;;;;;;7.85;2.67;;;;;;;15.77;52.73;98851.63;6188489;22;97182;-82
2023/03/31 10:35:39;;;;;;;9.05;3.15;;;;;;;15.88;53.02;98866.63;6216918;22;97215;-84
2023/03/31 10:38:09;;;;;;;9.07;2.53;;;;;;;15.84;52.51;98864.22;6187563;22;101434;-84
2023/03/31 10:40:35;;;;;;;6.80;2.60;;;;;;;15.80;53.04;98852.22;6190379;22;101663;-84
2023/03/31 10:43:15;;;;;;;7.90;3.15;;;;;;;15.84;52.72;98845.72;6212358;22;97153;-84
2023/03/31 10:45:55;;;;;;;6.05;2.40;;;;;;;15.86;52.73;98848.25;6213455;22;96799;-84
2023/03/31 10:48:31;;;;;;;8.60;3.38;;;;;;;15.84;53.27;98845.72;6215896;22;98219;-82
2023/03/31 10:51:16;;;;;;;8.52;3.25;;;;;;;15.85;53.52;98843.91;6239527;22;98202;-84
2023/03/31 10:53:50;;;;;;;6.88;2.42;;;;;;;16.02;53.04;98845.22;6189660;22;97386;-84
2023/03/31 10:56:42;;;;;;;7.43;2.42;;;;;;;16.10;52.97;98834.88;6187624;22;97177;-82
2023/03/31 11:00:00;;;;;;;9.18;2.50;;;;;;;16.21;52.69;98820.78;6212858;22;100919;-84
2023/03/31 11:03:14;;;;;;;4.88;2.47;;;;;;;16.35;51.84;98823.16;6143530;22;101893;-83
2023/03/31 11:05:52;;;;;;;6.25;2.30;;;;;;;16.47;52.02;98794.81;6155436;22;97289;-84
2023/03/31 11:08:45;;;;;;;6.03;2.33;;;;;;;16.72;51.36;98809.50;6213868;22;96773;-84
2023/03/31 11:11:40;;;;;;;10.63;2.72;;;;;;;16.71;50.55;98795.41;6186621;22;101087;-87
2023/03/31 11:14:28;;;;;;;7.97;2.97;;;;;;;16.76;50.29;98797.72;6215266;22;101489;-85
2023/03/31 11:17:06;;;;;;;6.65;2.65;;;;;;;16.72;50.44;98788.28;6269915;22;97203;-83
2023/03/31 11:19:32;;;;;;;7.00;3.30;;;;;;;16.77;50.63;98785.31;6270195;22;97139;-84
2023/03/31 11:22:08;;;;;;;6.88;2.88;;;;;;;16.77;50.75;98778.19;6241565;22;101946;-83
2023/03/31 11:24:53;;;;;;;6.22;2.42;;;;;;;16.86;50.68;98781.88;6217310;22;101769;-84
2023/03/31 11:27:28;;;;;;;4.50;1.70;;;;;;;16.79;50.70;98751.59;6216503;22;97113;-85
2023/03/31 11:30:23;;;;;;;7.57;2.17;;;;;;;16.90;50.50;98759.44;6217707;22;97413;-82
2023/03/31 11:33:02;;;;;;;6.05;2.38;;;;;;;16.72;50.79;98757.34;6216627;22;100708;-85
2023/03/31 11:35:31;;;;;;;5.82;2.42;;;;;;;16.71;50.79;98755.66;6240081;22;101864;-83
2023/03/31 11:38:11;;;;;;;8.15;3.40;;;;;;;16.55;51.41;98736.75;6269241;22;97074;-84
2023/03/31 11:41:09;;;;;;;7.43;2.30;;;;;;;16.72;50.86;98730.84;6242926;22;96716;-84
2023/03/31 11:43:41;;;;;;;7.45;2.25;;;;;;;16.67;50.71;98716.34;6218145;22;100238;-82
2023/03/31 11:46:11;;;;;;;4.10;2.05;;;;;;;16.76;50.86;98728.84;6215822;22;97143;-82
2023/03/31 11:48:51;;;;;;;8.38;2.55;;;;;;;16.75;51.02;98735.06;6215927;22;96760;-81